.
WxDataArchive / Data Records for 2011-04-16
2011-04-15 April 2011 2011-04-17

Data Records for Saturday, 16 April 2011

Time	Temp	Chill	HIndex	Humid	Dewpt	 Wind 	HiWind	WindDir	Rain 	Barom 
-----	----	-----	------	-----	-----	------	------	-------	-----	----- 
00:00	46.8	45.2	46.8	87	43.1	4	9	112	0.00	29.607 
00:05	47.1	44.2	47.1	87	43.4	6	11	90	0.00	29.607 
00:10	47.4	45.2	47.4	87	43.7	5	7	90	0.00	29.607 
00:15	47.6	45.4	47.6	87	43.9	5	10	90	0.00	29.596 
00:20	47.9	45.8	47.9	87	44.2	5	11	90	0.00	29.596 
00:25	48.0	46.6	48.0	87	44.3	4	7	112	0.00	29.596 
00:30	48.0	48.0	48.0	87	44.3	3	6	112	0.00	29.593 
00:35	48.2	46.8	48.2	88	44.8	4	8	112	0.00	29.593 
00:40	48.5	48.5	48.5	88	45.1	3	6	90	0.00	29.593 
00:45	48.9	47.6	48.9	88	45.5	4	7	90	0.00	29.581 
00:50	49.4	49.4	49.4	88	46.0	3	6	112	0.00	29.581 
00:55	49.6	49.6	49.6	88	46.2	3	6	90	0.00	29.581 
01:00	50.1	50.1	50.1	88	46.7	4	12	112	0.00	29.574 
01:05	50.1	50.1	50.1	88	46.7	5	8	112	0.00	29.574 
01:10	50.1	50.1	50.1	89	47.0	4	9	90	0.00	29.574 
01:15	50.1	50.1	50.1	89	47.0	2	4	112	0.00	29.562 
01:20	50.4	50.4	50.4	90	47.6	2	6	112	0.00	29.562 
01:25	50.7	50.7	50.7	90	47.9	1	3	90	0.00	29.562 
01:30	51.7	51.7	51.7	91	49.2	2	7	90	0.00	29.550 
01:35	53.5	53.5	53.5	89	50.3	4	14	90	0.01	29.550 
01:40	55.3	55.3	55.3	84	50.5	5	14	112	0.00	29.550 
01:45	56.5	56.5	56.5	80	50.4	6	17	90	0.00	29.522 
01:50	57.2	57.2	57.2	78	50.4	5	13	90	0.00	29.522 
01:55	57.3	57.3	57.3	79	50.8	5	15	90	0.00	29.522 
02:00	57.3	57.3	57.3	79	50.8	7	16	90	0.00	29.494 
02:05	57.3	57.3	57.3	79	50.8	6	14	90	0.00	29.494 
02:10	57.3	57.3	57.3	79	50.8	6	13	112	0.00	29.494 
02:15	57.2	57.2	57.2	80	51.1	5	12	90	0.00	29.489 
02:20	57.2	57.2	57.2	80	51.1	6	19	90	0.00	29.489 
02:25	57.2	57.2	57.2	80	51.1	5	14	90	0.00	29.489 
02:30	57.2	57.2	57.2	81	51.4	5	11	90	0.00	29.492 
02:35	57.0	57.0	57.0	81	51.2	5	15	90	0.00	29.492 
02:40	56.9	56.9	56.9	82	51.5	4	13	90	0.00	29.492 
02:45	56.7	56.7	56.7	82	51.3	3	11	90	0.00	29.487 
02:50	56.6	56.6	56.6	82	51.2	4	12	112	0.00	29.487 
02:55	56.6	56.6	56.6	83	51.5	4	12	90	0.00	29.487 
03:00	56.6	56.6	56.6	83	51.5	4	11	90	0.00	29.478 
03:05	56.5	56.5	56.5	83	51.4	3	12	112	0.00	29.478 
03:10	56.5	56.5	56.5	84	51.7	3	10	90	0.00	29.478 
03:15	56.3	56.3	56.3	84	51.5	2	7	90	0.00	29.478 
03:20	56.0	56.0	56.0	85	51.6	4	11	90	0.00	29.478 
03:25	55.9	55.9	55.9	86	51.8	3	7	90	0.00	29.478 
03:30	55.7	55.7	55.7	86	51.6	3	11	112	0.00	29.466 
03:35	55.4	55.4	55.4	87	51.6	2	6	68	0.00	29.466 
03:40	55.3	55.3	55.3	88	51.8	3	9	135	0.00	29.466 
03:45	55.1	55.1	55.1	88	51.6	3	9	90	0.01	29.472 
03:50	55.0	55.0	55.0	89	51.8	3	9	112	0.01	29.472 
03:55	54.8	54.8	54.8	90	51.9	3	10	112	0.01	29.472 
04:00	54.7	54.7	54.7	90	51.8	3	6	112	0.01	29.464 
04:05	54.5	54.5	54.5	91	51.9	3	10	90	0.02	29.464 
04:10	54.5	54.5	54.5	91	51.9	3	11	90	0.00	29.464 
04:15	54.4	54.4	54.4	92	52.1	2	6	112	0.01	29.459 
04:20	54.2	54.2	54.2	92	51.9	2	6	68	0.01	29.459 
04:25	54.1	54.1	54.1	92	51.8	3	9	90	0.01	29.459 
04:30	54.1	54.1	54.1	92	51.8	2	9	112	0.01	29.455 
04:35	53.9	53.9	53.9	92	51.6	2	9	135	0.01	29.455 
04:40	53.6	53.6	53.6	92	51.3	1	3	90	0.01	29.455 
04:45	53.3	53.3	53.3	92	51.0	2	5	90	0.00	29.438 
04:50	53.1	53.1	53.1	92	50.8	1	5	135	0.00	29.438 
04:55	52.9	52.9	52.9	92	50.6	1	4	135	0.00	29.438 
05:00	52.6	52.6	52.6	92	50.3	1	4	90	0.01	29.423 
05:05	52.3	52.3	52.3	92	50.0	1	4	90	0.00	29.423 
05:10	52.2	52.2	52.2	92	49.9	0	4	90	0.00	29.423 
05:15	52.0	52.0	52.0	92	49.7	1	3	90	0.00	29.410 
05:20	52.0	52.0	52.0	92	49.7	2	5	90	0.00	29.410 
05:25	52.0	52.0	52.0	93	50.0	1	4	90	0.00	29.410 
05:30	52.3	52.3	52.3	93	50.3	2	5	135	0.00	29.409 
05:35	52.6	52.6	52.6	93	50.6	2	7	112	0.00	29.409 
05:40	52.6	52.6	52.6	93	50.6	1	4	112	0.00	29.409 
05:45	52.6	52.6	52.6	93	50.6	1	3	112	0.00	29.408 
05:50	52.6	52.6	52.6	93	50.6	1	4	112	0.00	29.408 
05:55	52.5	52.5	52.5	93	50.5	1	3	112	0.00	29.408 
06:00	52.5	52.5	52.5	94	50.8	0	2	68	0.00	29.393 
06:05	52.5	52.5	52.5	94	50.8	0	1	68	0.00	29.393 
06:10	52.3	52.3	52.3	94	50.6	0	2	68	0.00	29.393 
06:15	52.3	52.3	52.3	94	50.6	0	1	68	0.00	29.404 
06:20	52.3	52.3	52.3	94	50.6	0	2	68	0.00	29.404 
06:25	52.3	52.3	52.3	94	50.6	0	2	68	0.00	29.404 
06:30	52.3	52.3	52.3	94	50.6	0	1	68	0.00	29.405 
06:35	52.2	52.2	52.2	94	50.5	0	1	68	0.01	29.405 
06:40	52.2	52.2	52.2	94	50.5	0	1	68	0.00	29.405 
06:45	52.2	52.2	52.2	95	50.8	1	3	68	0.00	29.401 
06:50	52.2	52.2	52.2	95	50.8	1	4	90	0.00	29.401 
06:55	52.2	52.2	52.2	95	50.8	1	2	135	0.00	29.401 
07:00	52.2	52.2	52.2	95	50.8	1	3	135	0.00	29.408 
07:05	52.2	52.2	52.2	95	50.8	1	3	90	0.00	29.408 
07:10	52.2	52.2	52.2	95	50.8	1	2	112	0.00	29.408 
07:15	52.0	52.0	52.0	95	50.6	1	3	112	0.00	29.409 
07:20	52.2	52.2	52.2	95	50.8	2	4	112	0.00	29.409 
07:25	52.0	52.0	52.0	95	50.6	2	5	90	0.00	29.409 
07:30	51.9	51.9	51.9	94	50.2	2	7	248	0.00	29.408 
07:35	51.7	51.7	51.7	94	50.0	2	9	90	0.00	29.408 
07:40	51.6	51.6	51.6	93	49.6	1	6	248	0.00	29.408 
07:45	51.4	51.4	51.4	92	49.2	2	6	90	0.00	29.411 
07:50	51.6	51.6	51.6	92	49.4	1	3	112	0.00	29.411 
07:55	51.4	51.4	51.4	91	48.9	1	4	90	0.00	29.411 
08:00	51.4	51.4	51.4	90	48.6	2	5	112	0.00	29.414 
08:05	51.4	51.4	51.4	89	48.3	1	6	68	0.00	29.414 
08:10	51.4	51.4	51.4	89	48.3	0	2	112	0.00	29.414 
08:15	51.4	51.4	51.4	89	48.3	1	3	270	0.00	29.415 
08:20	51.4	51.4	51.4	88	48.0	1	5	112	0.00	29.415 
08:25	51.4	51.4	51.4	88	48.0	1	3	90	0.00	29.415 
08:30	51.3	51.3	51.3	87	47.6	1	7	248	0.00	29.414 
08:35	51.3	51.3	51.3	87	47.6	1	2	270	0.00	29.414 
08:40	51.3	51.3	51.3	86	47.3	1	6	315	0.00	29.414 
08:45	51.3	51.3	51.3	86	47.3	0	3	90	0.00	29.414 
08:50	51.3	51.3	51.3	86	47.3	2	5	90	0.00	29.414 
08:55	51.3	51.3	51.3	85	46.9	2	7	90	0.00	29.414 
09:00	51.4	51.4	51.4	84	46.7	2	5	248	0.00	29.414 
09:05	51.6	51.6	51.6	84	46.9	2	6	248	0.00	29.414 
09:10	51.7	51.7	51.7	83	46.7	2	9	270	0.00	29.414 
09:15	51.7	51.7	51.7	83	46.7	2	6	90	0.00	29.411 
09:20	51.7	51.7	51.7	82	46.4	2	5	248	0.00	29.411 
09:25	51.6	51.6	51.6	82	46.3	2	6	270	0.00	29.411 
09:30	51.4	51.4	51.4	83	46.4	2	9	248	0.00	29.414 
09:35	51.1	51.1	51.1	84	46.4	1	4	248	0.00	29.414 
09:40	51.0	51.0	51.0	85	46.7	2	5	248	0.00	29.414 
09:45	50.7	50.7	50.7	85	46.4	3	10	248	0.00	29.427 
09:50	50.1	50.1	50.1	86	46.1	3	7	248	0.01	29.427 
09:55	49.4	48.2	49.4	87	45.7	4	9	248	0.00	29.427 
10:00	48.8	48.8	48.8	88	45.4	3	10	248	0.00	29.435 
10:05	48.3	46.9	48.3	89	45.2	4	13	248	0.00	29.435 
10:10	48.2	48.2	48.2	90	45.4	3	6	248	0.01	29.435 
10:15	48.0	48.0	48.0	90	45.2	3	6	248	0.00	29.432 
10:20	47.9	47.9	47.9	90	45.1	3	10	248	0.00	29.432 
10:25	47.7	47.7	47.7	91	45.2	2	9	248	0.00	29.432 
10:30	47.6	47.6	47.6	91	45.1	2	6	248	0.00	29.432 
10:35	47.6	47.6	47.6	91	45.1	3	6	248	0.00	29.432 
10:40	47.6	47.6	47.6	91	45.1	2	6	248	0.00	29.432 
10:45	47.6	47.6	47.6	92	45.4	2	4	248	0.00	29.429 
10:50	47.6	47.6	47.6	92	45.4	1	4	248	0.00	29.429 
10:55	47.6	47.6	47.6	92	45.4	1	3	248	0.00	29.429 
11:00	47.7	47.7	47.7	92	45.5	2	4	248	0.01	29.426 
11:05	47.9	47.9	47.9	92	45.7	2	9	248	0.00	29.426 
11:10	48.2	48.2	48.2	92	46.0	3	8	248	0.00	29.426 
11:15	48.6	48.6	48.6	92	46.4	2	6	248	0.00	29.415 
11:20	48.9	48.9	48.9	92	46.7	3	9	248	0.00	29.415 
11:25	49.1	49.1	49.1	91	46.6	2	7	248	0.00	29.415 
11:30	49.1	49.1	49.1	90	46.3	3	13	248	0.00	29.415 
11:35	49.2	49.2	49.2	90	46.4	2	6	225	0.00	29.415 
11:40	49.2	49.2	49.2	89	46.1	2	4	248	0.00	29.415 
11:45	49.4	49.4	49.4	88	46.0	2	10	225	0.00	29.418 
11:50	49.2	49.2	49.2	87	45.5	2	10	248	0.00	29.418 
11:55	49.2	49.2	49.2	87	45.5	2	11	248	0.00	29.418 
12:00	49.1	49.1	49.1	86	45.1	2	9	248	0.00	29.420 
12:05	49.1	49.1	49.1	86	45.1	2	6	248	0.00	29.420 
12:10	49.1	49.1	49.1	86	45.1	2	4	248	0.00	29.420 
12:15	49.1	49.1	49.1	86	45.1	2	6	248	0.00	29.424 
12:20	48.9	48.9	48.9	86	44.9	3	5	248	0.00	29.424 
12:25	48.8	48.8	48.8	86	44.8	3	5	248	0.00	29.424 
12:30	48.9	48.9	48.9	87	45.2	3	6	248	0.00	29.423 
12:35	49.5	49.5	49.5	87	45.8	3	7	270	0.00	29.423 
12:40	49.8	49.8	49.8	86	45.8	3	7	248	0.00	29.423 
12:45	50.4	50.4	50.4	85	46.1	2	6	248	0.00	29.421 
12:50	50.5	50.5	50.5	83	45.5	2	6	248	0.00	29.421 
12:55	50.7	50.7	50.7	81	45.1	3	10	248	0.00	29.421 
13:00	50.8	50.8	50.8	78	44.2	5	12	248	0.00	29.422 
13:05	50.8	50.8	50.8	77	43.9	3	9	248	0.00	29.422 
13:10	51.0	51.0	51.0	77	44.0	3	6	248	0.00	29.422 
13:15	51.1	51.1	51.1	76	43.8	4	12	248	0.00	29.415 
13:20	51.1	51.1	51.1	75	43.5	4	10	248	0.00	29.415 
13:25	51.0	51.0	51.0	75	43.4	4	11	248	0.00	29.415 
13:30	50.8	50.8	50.8	77	43.9	3	7	248	0.00	29.416 
13:35	50.8	50.8	50.8	76	43.5	4	13	248	0.00	29.416 
13:40	51.3	51.3	51.3	75	43.6	3	12	248	0.00	29.416 
13:45	51.3	51.3	51.3	74	43.3	4	11	248	0.00	29.417 
13:50	51.1	51.1	51.1	74	43.1	4	7	248	0.00	29.417 
13:55	51.0	51.0	51.0	74	43.0	5	12	248	0.00	29.417 
14:00	51.1	51.1	51.1	76	43.8	3	9	248	0.00	29.422 
14:05	51.0	51.0	51.0	75	43.4	4	12	248	0.00	29.422 
14:10	50.5	50.5	50.5	77	43.6	4	11	248	0.00	29.422 
14:15	50.4	50.4	50.4	78	43.8	4	9	248	0.00	29.430 
14:20	50.2	50.2	50.2	77	43.3	5	12	248	0.00	29.430 
14:25	50.2	50.2	50.2	77	43.3	4	10	248	0.00	29.430 
14:30	50.4	50.4	50.4	77	43.5	3	7	248	0.00	29.431 
14:35	50.4	50.4	50.4	78	43.8	4	11	248	0.00	29.431 
14:40	50.2	50.2	50.2	79	43.9	4	9	248	0.00	29.431 
14:45	50.1	50.1	50.1	81	44.5	3	9	248	0.00	29.433 
14:50	49.9	49.9	49.9	81	44.3	3	11	225	0.00	29.433 
14:55	49.2	47.9	49.2	82	43.9	4	12	248	0.00	29.433 
15:00	48.8	47.5	48.8	84	44.2	4	11	248	0.00	29.436 
15:05	48.6	47.3	48.6	84	44.0	4	12	248	0.00	29.436 
15:10	48.6	47.3	48.6	84	44.0	4	10	248	0.00	29.436 
15:15	49.1	47.8	49.1	84	44.5	4	9	248	0.00	29.437 
15:20	49.4	49.4	49.4	83	44.5	3	12	248	0.00	29.437 
15:25	49.4	48.2	49.4	82	44.1	4	13	248	0.00	29.437 
15:30	49.6	49.6	49.6	81	44.0	3	9	248	0.00	29.440 
15:35	49.6	49.6	49.6	81	44.0	3	10	248	0.00	29.440 
15:40	49.4	47.5	49.4	80	43.5	5	12	248	0.00	29.440 
15:45	48.9	46.9	48.9	82	43.6	5	12	248	0.00	29.446 
15:50	49.2	47.9	49.2	82	43.9	4	10	248	0.00	29.446 
15:55	49.5	48.3	49.5	81	43.9	4	12	248	0.00	29.446 
16:00	49.5	47.6	49.5	79	43.3	5	12	248	0.00	29.449 
16:05	49.2	46.2	49.2	77	42.3	7	20	248	0.01	29.449 
16:10	49.1	47.2	49.1	77	42.2	5	11	248	0.00	29.449 
16:15	48.8	46.8	48.8	78	42.2	5	13	248	0.00	29.451 
16:20	48.8	47.5	48.8	78	42.2	4	10	248	0.00	29.451 
16:25	48.6	47.3	48.6	79	42.4	4	12	248	0.00	29.451 
16:30	48.5	47.1	48.5	79	42.3	4	12	225	0.00	29.451 
16:35	48.2	46.1	48.2	79	42.0	5	13	248	0.00	29.451 
16:40	47.9	45.8	47.9	79	41.7	5	13	270	0.00	29.451 
16:45	47.7	45.5	47.7	80	41.8	5	13	248	0.00	29.456 
16:50	47.6	45.4	47.6	81	42.1	5	14	248	0.00	29.456 
16:55	47.4	45.2	47.4	81	41.9	5	11	270	0.00	29.456 
17:00	47.3	45.8	47.3	82	42.1	4	11	248	0.00	29.466 
17:05	47.1	45.5	47.1	82	41.9	4	11	248	0.00	29.466 
17:10	47.1	44.8	47.1	82	41.9	5	9	248	0.00	29.466 
17:15	47.3	47.3	47.3	82	42.1	3	7	225	0.00	29.464 
17:20	47.3	47.3	47.3	82	42.1	2	6	248	0.00	29.464 
17:25	47.3	47.3	47.3	82	42.1	2	7	248	0.00	29.464 
17:30	47.3	47.3	47.3	83	42.4	2	9	225	0.00	29.469 
17:35	47.3	47.3	47.3	84	42.7	2	6	248	0.00	29.469 
17:40	47.1	47.1	47.1	84	42.5	2	10	248	0.00	29.469 
17:45	47.0	47.0	47.0	84	42.4	3	7	248	0.00	29.472 
17:50	47.0	47.0	47.0	84	42.4	3	9	248	0.00	29.472 
17:55	46.8	46.8	46.8	84	42.2	3	10	248	0.00	29.472 
18:00	46.7	45.1	46.7	85	42.4	4	13	248	0.00	29.471 
18:05	46.4	46.4	46.4	86	42.4	3	7	248	0.00	29.471 
18:10	46.2	43.8	46.2	87	42.5	5	12	248	0.00	29.471 
18:15	46.1	43.6	46.1	88	42.7	5	11	270	0.00	29.484 
18:20	45.7	43.2	45.7	88	42.4	5	10	270	0.00	29.484 
18:25	45.2	42.0	45.2	88	41.9	6	17	270	0.00	29.484 
18:30	44.8	42.1	44.8	87	41.2	5	12	248	0.00	29.501 
18:35	44.3	41.5	44.3	87	40.7	5	10	270	0.00	29.501 
18:40	44.1	40.6	44.1	86	40.2	6	11	270	0.00	29.501 
18:45	43.6	40.0	43.6	85	39.4	6	13	270	0.00	29.514 
18:50	43.3	41.1	43.3	85	39.1	4	10	248	0.00	29.514 
18:55	43.1	40.9	43.1	85	38.9	4	9	248	0.00	29.514 
19:00	42.8	39.8	42.8	86	38.9	5	9	270	0.00	29.530 
19:05	41.5	36.9	41.5	84	37.0	7	11	270	0.01	29.530 
19:10	41.1	37.8	41.1	85	36.9	5	10	270	0.00	29.530 
19:15	40.6	36.5	40.6	85	36.4	6	11	270	0.00	29.542 
19:20	40.6	37.2	40.6	86	36.7	5	13	270	0.00	29.542 
19:25	40.3	36.1	40.3	85	36.2	6	13	270	0.00	29.542 
19:30	40.1	35.9	40.1	84	35.7	6	12	270	0.00	29.558 
19:35	39.9	36.4	39.9	85	35.8	5	10	270	0.00	29.558 
19:40	39.8	37.1	39.8	85	35.7	4	9	270	0.00	29.558 
19:45	39.5	35.9	39.5	84	35.1	5	10	270	0.00	29.573 
19:50	39.5	35.9	39.5	83	34.8	5	10	248	0.00	29.573 
19:55	39.3	35.7	39.3	83	34.6	5	10	270	0.00	29.573 
20:00	39.2	35.5	39.2	82	34.2	5	10	270	0.00	29.583 
20:05	38.9	33.8	38.9	81	33.6	7	16	270	0.00	29.583 
20:10	38.8	35.1	38.8	81	33.5	5	9	270	0.00	29.583 
20:15	38.6	34.8	38.6	81	33.3	5	12	270	0.00	29.595 
20:20	38.3	33.7	38.3	81	33.0	6	13	270	0.00	29.595 
20:25	38.2	34.4	38.2	81	32.9	5	11	270	0.00	29.595 
20:30	37.9	34.0	37.9	81	32.6	5	11	270	0.00	29.610 
20:35	37.8	33.1	37.8	81	32.5	6	11	270	0.00	29.610 
20:40	37.6	32.9	37.6	81	32.3	6	10	270	0.00	29.610 
20:45	37.6	32.9	37.6	81	32.3	6	12	270	0.00	29.625 
20:50	37.6	34.5	37.6	81	32.3	4	11	270	0.00	29.625 
20:55	37.6	34.5	37.6	81	32.3	4	9	270	0.00	29.625 
21:00	37.6	34.5	37.6	81	32.3	4	7	270	0.00	29.642 
21:05	37.6	37.6	37.6	81	32.3	3	7	270	0.00	29.642 
21:10	37.6	37.6	37.6	81	32.3	3	6	248	0.00	29.642 
21:15	37.6	37.6	37.6	81	32.3	3	6	248	0.00	29.654 
21:20	37.5	34.4	37.5	81	32.2	4	9	270	0.00	29.654 
21:25	37.5	37.5	37.5	82	32.5	3	5	270	0.00	29.654 
21:30	37.5	37.5	37.5	83	32.8	3	6	248	0.00	29.659 
21:35	37.5	37.5	37.5	84	33.1	2	5	248	0.00	29.659 
21:40	37.5	37.5	37.5	84	33.1	2	5	248	0.00	29.659 
21:45	37.5	37.5	37.5	85	33.4	2	3	248	0.00	29.669 
21:50	37.5	37.5	37.5	85	33.4	3	6	270	0.00	29.669 
21:55	37.6	37.6	37.6	86	33.8	2	6	270	0.00	29.669 
22:00	37.5	37.5	37.5	87	34.0	2	6	248	0.00	29.674 
22:05	37.3	37.3	37.3	87	33.8	2	5	248	0.01	29.674 
22:10	36.9	36.9	36.9	88	33.7	3	6	292	0.00	29.674 
22:15	36.5	36.5	36.5	88	33.3	3	6	248	0.01	29.688 
22:20	36.5	36.5	36.5	89	33.6	3	7	248	0.00	29.688 
22:25	36.6	36.6	36.6	90	33.9	3	6	270	0.00	29.688 
22:30	36.8	36.8	36.8	89	33.9	3	9	270	0.00	29.691 
22:35	37.0	33.9	37.0	88	33.8	4	8	270	0.00	29.691 
22:40	37.3	34.2	37.3	87	33.8	4	10	270	0.00	29.691 
22:45	37.6	34.5	37.6	85	33.5	4	7	270	0.00	29.698 
22:50	37.8	37.8	37.8	84	33.4	3	9	270	0.00	29.698 
22:55	37.9	34.9	37.9	83	33.2	4	7	270	0.00	29.698 
23:00	38.0	35.0	38.0	81	32.7	4	9	270	0.00	29.706 
23:05	38.2	35.2	38.2	79	32.3	4	9	248	0.00	29.706 
23:10	38.2	38.2	38.2	79	32.3	3	7	270	0.00	29.706 
23:15	38.3	35.4	38.3	78	32.1	4	9	270	0.00	29.714 
23:20	38.3	38.3	38.3	78	32.1	3	6	270	0.00	29.714 
23:25	38.3	38.3	38.3	77	31.7	3	6	270	0.00	29.714 
23:30	38.3	38.3	38.3	77	31.7	3	6	270	0.00	29.719 
23:35	38.3	38.3	38.3	77	31.7	3	6	270	0.00	29.719 
23:40	38.5	38.5	38.5	77	31.9	3	5	270	0.00	29.719 
23:45	38.5	38.5	38.5	77	31.9	3	7	270	0.00	29.721 
23:50	38.5	38.5	38.5	77	31.9	3	7	225	0.00	29.721 
23:55	38.5	38.5	38.5	77	31.9	3	6	248	0.00	29.721 

CoCoRaHS
IN-AL-39
A2 Web Hosting
Creative Commons License
GoDaddy
search engine by freefind advanced

loaded 2018-11-20 02:24:00 • last modified 2010-11-18 10:43:29
Privacy PolicyDisclaimer
• wx.awcolley.com is powered by PmWiki v.2002016 •
• all content (unless otherwise noted) © 2018 A W Colley